createdAt,value
2022-09-06T00:00:48.491Z,66.42
2022-09-06T00:01:48.447Z,66.45
2022-09-06T00:02:48.528Z,66.64
2022-09-06T00:03:48.464Z,66.49
2022-09-06T00:04:48.400Z,66.62
2022-09-06T00:05:48.392Z,66.47
2022-09-06T00:06:48.406Z,66.47
2022-09-06T00:07:48.391Z,66.27
2022-09-06T00:08:48.364Z,66.28
2022-09-06T00:09:48.331Z,66.16
2022-09-06T00:10:48.324Z,65.96
2022-09-06T00:11:48.336Z,65.98
2022-09-06T00:12:48.349Z,66.22
2022-09-06T00:13:48.289Z,65.85
2022-09-06T00:14:48.278Z,66.18
2022-09-06T00:15:48.293Z,66.20
2022-09-06T00:16:48.248Z,66.32
2022-09-06T00:17:48.250Z,66.58
2022-09-06T00:18:48.229Z,66.43
2022-09-06T00:19:48.237Z,66.73
2022-09-06T00:20:48.257Z,66.59
2022-09-06T00:21:48.186Z,66.90
2022-09-06T00:22:48.186Z,66.90
2022-09-06T00:23:48.164Z,66.82
2022-09-06T00:24:48.149Z,66.96
2022-09-06T00:25:48.126Z,66.88
2022-09-06T00:26:48.142Z,66.78
2022-09-06T00:27:48.115Z,66.80
2022-09-06T00:28:48.142Z,66.66
2022-09-06T00:29:48.083Z,66.36
2022-09-06T00:30:48.087Z,66.38
2022-09-06T00:31:48.088Z,66.86
2022-09-06T00:32:48.062Z,66.42
2022-09-06T00:33:48.032Z,66.70
2022-09-06T00:34:48.026Z,67.06
2022-09-06T00:35:47.990Z,66.69
2022-09-06T00:36:47.991Z,66.77
2022-09-06T00:37:47.969Z,66.67
2022-09-06T00:38:47.967Z,66.94
2022-09-06T00:39:48.011Z,66.50
2022-09-06T00:40:47.979Z,66.34
2022-09-06T00:41:47.922Z,66.86
2022-09-06T00:42:47.906Z,66.75
2022-09-06T00:43:47.907Z,66.59
2022-09-06T00:44:47.873Z,66.34
2022-09-06T00:45:47.867Z,66.25
2022-09-06T00:46:47.856Z,66.17
2022-09-06T00:47:47.844Z,65.86
2022-09-06T00:48:47.823Z,65.94
2022-09-06T00:49:47.853Z,66.18
2022-09-06T00:50:47.834Z,66.04
2022-09-06T00:51:47.799Z,65.87
2022-09-06T00:52:47.816Z,66.13
2022-09-06T00:53:47.758Z,66.39
2022-09-06T00:54:47.752Z,66.45
2022-09-06T00:55:47.755Z,66.84
2022-09-06T00:56:47.739Z,66.70
2022-09-06T00:57:47.699Z,66.61
2022-09-06T00:58:47.695Z,66.46
2022-09-06T00:59:47.688Z,66.84
2022-09-06T01:00:47.691Z,67.23
2022-09-06T01:01:47.753Z,66.98
2022-09-06T01:02:47.793Z,66.78
2022-09-06T01:03:47.646Z,66.39
2022-09-06T01:04:47.670Z,66.71
2022-09-06T01:05:50.562Z,66.70
2022-09-06T01:06:47.593Z,66.75
2022-09-06T01:07:47.587Z,66.59
2022-09-06T01:08:47.560Z,66.67
2022-09-06T01:09:47.569Z,66.74
2022-09-06T01:10:47.535Z,66.49
2022-09-06T01:11:47.542Z,66.73
2022-09-06T01:12:47.539Z,66.70
2022-09-06T01:13:47.500Z,66.83
2022-09-06T01:14:47.499Z,66.46
2022-09-06T01:15:47.511Z,66.47
2022-09-06T01:16:47.471Z,66.62
2022-09-06T01:17:47.470Z,66.32
2022-09-06T01:18:47.528Z,66.26
2022-09-06T01:19:47.420Z,66.55
2022-09-06T01:20:47.408Z,66.61
2022-09-06T01:21:47.420Z,66.39
2022-09-06T01:22:47.371Z,66.57
2022-09-06T01:23:47.393Z,66.58
2022-09-06T01:24:47.356Z,66.21
2022-09-06T01:25:47.335Z,66.14
2022-09-06T01:26:47.338Z,65.99
2022-09-06T01:27:47.373Z,66.01
2022-09-06T01:28:47.351Z,66.12
2022-09-06T01:29:47.306Z,65.91
2022-09-06T01:30:47.292Z,65.97
2022-09-06T01:31:47.303Z,66.21
2022-09-06T01:32:47.278Z,66.33
2022-09-06T01:33:47.268Z,66.75
2022-09-06T01:34:47.215Z,66.80
2022-09-06T01:35:47.215Z,66.52
2022-09-06T01:37:08.361Z,66.91
2022-09-06T01:37:47.184Z,66.25
2022-09-06T01:38:47.171Z,66.49
2022-09-06T01:39:47.194Z,66.47
2022-09-06T01:40:47.164Z,66.70
2022-09-06T01:41:47.152Z,66.67
2022-09-06T01:42:47.111Z,66.50
2022-09-06T01:43:47.135Z,66.28
2022-09-06T01:44:47.086Z,66.42
2022-09-06T01:45:47.124Z,66.49
2022-09-06T01:46:47.057Z,66.54
2022-09-06T01:47:47.053Z,66.82
2022-09-06T01:48:47.042Z,67.03
2022-09-06T01:49:47.046Z,66.91
2022-09-06T01:50:47.010Z,66.75
2022-09-06T01:51:47.039Z,66.98
2022-09-06T01:52:46.991Z,66.91
2022-09-06T01:53:46.976Z,66.88
2022-09-06T01:54:46.956Z,66.74
2022-09-06T01:55:46.965Z,66.49
2022-09-06T01:56:46.925Z,66.54
2022-09-06T01:57:46.931Z,65.81
2022-09-06T01:58:46.896Z,66.51
2022-09-06T01:59:46.900Z,66.57
2022-09-06T02:00:46.900Z,66.75
2022-09-06T02:01:46.945Z,67.24
2022-09-06T02:02:46.942Z,67.12
2022-09-06T02:03:46.847Z,67.18
2022-09-06T02:04:46.865Z,66.57
2022-09-06T02:05:46.819Z,66.50
2022-09-06T02:06:46.800Z,67.17
2022-09-06T02:07:46.813Z,67.15
2022-09-06T02:08:46.770Z,67.47
2022-09-06T02:09:46.782Z,67.60
2022-09-06T02:10:46.763Z,67.66
2022-09-06T02:11:46.744Z,67.54
2022-09-06T02:12:46.726Z,67.58
2022-09-06T02:13:46.733Z,67.50
2022-09-06T02:14:46.689Z,67.20
2022-09-06T02:15:46.696Z,66.99
2022-09-06T02:16:46.726Z,67.50
2022-09-06T02:17:46.650Z,66.82
2022-09-06T02:18:46.634Z,66.77
2022-09-06T02:19:46.624Z,67.20
2022-09-06T02:20:46.607Z,67.30
2022-09-06T02:21:46.612Z,67.70
2022-09-06T02:22:46.624Z,67.42
2022-09-06T02:23:46.571Z,67.49
2022-09-06T02:24:46.591Z,67.48
2022-09-06T02:25:46.546Z,67.49
2022-09-06T02:26:46.527Z,67.38
2022-09-06T02:27:46.539Z,67.15
2022-09-06T02:28:46.531Z,66.99
2022-09-06T02:29:46.518Z,67.09
2022-09-06T02:30:46.567Z,66.95
2022-09-06T02:31:46.468Z,66.84
2022-09-06T02:32:46.466Z,66.33
2022-09-06T02:33:46.436Z,66.31
2022-09-06T02:34:46.421Z,66.07
2022-09-06T02:35:46.408Z,66.14
2022-09-06T02:36:46.391Z,66.34
2022-09-06T02:37:46.416Z,66.59
2022-09-06T02:38:46.403Z,66.54
2022-09-06T02:39:46.406Z,66.97
2022-09-06T02:40:46.338Z,66.99
2022-09-06T02:41:46.336Z,66.67
2022-09-06T02:42:46.310Z,66.11
2022-09-06T02:43:46.374Z,66.52
2022-09-06T02:44:46.312Z,66.52
2022-09-06T02:45:46.324Z,66.31
2022-09-06T02:46:46.260Z,66.58
2022-09-06T02:47:46.277Z,65.96
2022-09-06T02:48:46.251Z,66.26
2022-09-06T02:49:46.267Z,66.39
2022-09-06T02:50:46.240Z,66.71
2022-09-06T02:51:46.204Z,67.14
2022-09-06T02:52:46.242Z,67.71
2022-09-06T02:53:46.168Z,67.78
2022-09-06T02:54:46.173Z,68.15
2022-09-06T02:55:46.173Z,68.44
2022-09-06T02:56:50.181Z,68.64
2022-09-06T02:57:46.146Z,69.01
2022-09-06T02:58:46.104Z,69.52
2022-09-06T02:59:46.094Z,69.94
2022-09-06T03:00:46.066Z,70.39
2022-09-06T03:01:46.119Z,70.42
2022-09-06T03:02:46.093Z,70.28
2022-09-06T03:03:46.077Z,69.76
2022-09-06T03:04:46.054Z,69.55
2022-09-06T03:05:46.036Z,69.64
2022-09-06T03:06:46.043Z,69.55
2022-09-06T03:07:45.999Z,69.79
2022-09-06T03:08:45.963Z,69.73
2022-09-06T03:09:45.960Z,69.69
2022-09-06T03:10:45.958Z,69.80
2022-09-06T03:11:45.950Z,69.85
2022-09-06T03:12:45.916Z,70.00
2022-09-06T03:13:45.905Z,70.16
2022-09-06T03:14:45.891Z,70.24
2022-09-06T03:15:45.876Z,70.45
2022-09-06T03:16:45.981Z,70.39
2022-09-06T03:17:45.878Z,70.39
2022-09-06T03:18:45.838Z,70.45
2022-09-06T03:19:45.863Z,70.70
2022-09-06T03:20:52.308Z,70.79
2022-09-06T03:21:45.807Z,70.99
2022-09-06T03:22:45.802Z,71.32
2022-09-06T03:23:45.783Z,71.60
2022-09-06T03:24:45.777Z,71.64
2022-09-06T03:25:45.749Z,70.81
2022-09-06T03:26:45.728Z,70.91
2022-09-06T03:27:45.722Z,70.22
2022-09-06T03:28:45.702Z,70.08
2022-09-06T03:29:45.697Z,69.96
2022-09-06T03:30:45.701Z,70.13
2022-09-06T03:31:45.684Z,69.94
2022-09-06T03:32:45.650Z,69.35
2022-09-06T03:33:45.642Z,69.39
2022-09-06T03:34:45.639Z,69.79
2022-09-06T03:35:45.616Z,69.89
2022-09-06T03:36:45.633Z,69.93
2022-09-06T03:37:45.612Z,69.52
2022-09-06T03:38:45.578Z,69.33
2022-09-06T03:39:45.613Z,69.20
2022-09-06T03:40:45.549Z,69.08
2022-09-06T03:41:45.553Z,68.96
2022-09-06T03:42:45.526Z,68.59
2022-09-06T03:43:45.527Z,68.61
2022-09-06T03:44:45.495Z,68.86
2022-09-06T03:45:45.527Z,69.30
2022-09-06T03:46:45.468Z,69.62
2022-09-06T03:47:45.461Z,69.42
2022-09-06T03:48:45.470Z,69.25
2022-09-06T03:49:45.433Z,69.12
2022-09-06T03:50:45.422Z,69.21
2022-09-06T03:51:45.416Z,69.52
2022-09-06T03:52:45.390Z,69.51
2022-09-06T03:53:45.390Z,69.67
2022-09-06T03:54:45.367Z,69.88
2022-09-06T03:55:45.357Z,70.04
2022-09-06T03:56:45.350Z,70.33
2022-09-06T03:57:45.394Z,70.68
2022-09-06T03:58:45.316Z,70.18
2022-09-06T03:59:45.301Z,70.01
2022-09-06T04:00:45.410Z,70.24
2022-09-06T04:01:45.349Z,70.47
2022-09-06T04:02:45.377Z,70.79
2022-09-06T04:03:45.266Z,70.82
2022-09-06T04:04:45.234Z,71.20
2022-09-06T04:05:45.241Z,71.84
2022-09-06T04:06:45.212Z,71.24
2022-09-06T04:07:45.881Z,70.95
2022-09-06T04:08:45.194Z,70.84
2022-09-06T04:09:45.170Z,70.94
2022-09-06T04:10:45.156Z,71.11
2022-09-06T04:11:45.289Z,70.87
2022-09-06T04:12:45.142Z,70.93
2022-09-06T04:13:45.126Z,71.29
2022-09-06T04:14:45.107Z,71.09
2022-09-06T04:15:45.094Z,71.29
2022-09-06T04:16:45.145Z,71.19
2022-09-06T04:17:45.069Z,71.12
2022-09-06T04:18:45.052Z,70.99
2022-09-06T04:19:45.063Z,70.94
2022-09-06T04:20:45.023Z,70.83
2022-09-06T04:21:45.024Z,71.05
2022-09-06T04:22:45.050Z,71.22
2022-09-06T04:23:44.996Z,71.30
2022-09-06T04:24:44.970Z,71.46
2022-09-06T04:25:44.961Z,71.77
2022-09-06T04:26:44.943Z,71.78
2022-09-06T04:27:44.937Z,71.40
2022-09-06T04:28:44.929Z,71.16
2022-09-06T04:29:44.911Z,71.14
2022-09-06T04:30:44.898Z,71.27
2022-09-06T04:31:44.931Z,70.87
2022-09-06T04:32:44.875Z,70.72
2022-09-06T04:33:44.858Z,70.16
2022-09-06T04:34:44.842Z,69.62
2022-09-06T04:35:44.852Z,69.45
2022-09-06T04:36:48.354Z,69.23
2022-09-06T04:37:45.756Z,69.59
2022-09-06T04:38:44.819Z,69.67
2022-09-06T04:39:44.853Z,69.90
2022-09-06T04:40:44.783Z,69.23
2022-09-06T04:41:44.765Z,69.35
2022-09-06T04:42:44.746Z,69.55
2022-09-06T04:43:44.805Z,69.39
2022-09-06T04:44:44.729Z,69.76
2022-09-06T04:45:44.831Z,69.83
2022-09-06T04:46:44.707Z,70.06
2022-09-06T04:47:44.687Z,70.13
2022-09-06T04:48:44.677Z,69.79
2022-09-06T04:49:44.662Z,69.71
2022-09-06T04:50:44.637Z,69.80
2022-09-06T04:51:44.642Z,69.76
2022-09-06T04:52:44.611Z,69.99
2022-09-06T04:53:44.655Z,69.86
2022-09-06T04:54:44.582Z,69.18
2022-09-06T04:55:44.602Z,69.29
2022-09-06T04:56:44.564Z,68.78
2022-09-06T04:57:48.467Z,68.93
2022-09-06T04:58:44.542Z,68.96
2022-09-06T04:59:44.544Z,69.00
2022-09-06T05:00:44.578Z,68.29
2022-09-06T05:01:44.521Z,68.89
2022-09-06T05:02:44.538Z,68.81
2022-09-06T05:03:44.477Z,69.11
2022-09-06T05:04:44.464Z,69.33
2022-09-06T05:05:44.445Z,69.30
2022-09-06T05:06:44.435Z,69.09
2022-09-06T05:07:44.448Z,69.20
2022-09-06T05:08:44.413Z,68.97
2022-09-06T05:09:44.411Z,68.74
2022-09-06T05:10:44.375Z,68.18
2022-09-06T05:11:44.399Z,68.07
2022-09-06T05:12:44.538Z,67.93
2022-09-06T05:13:44.351Z,68.04
2022-09-06T05:14:44.332Z,68.04
2022-09-06T05:15:44.323Z,67.56
2022-09-06T05:16:44.357Z,67.38
2022-09-06T05:17:44.297Z,67.58
2022-09-06T05:18:44.304Z,67.66
2022-09-06T05:19:44.312Z,67.65
2022-09-06T05:20:44.275Z,67.96
2022-09-06T05:21:44.242Z,67.86
2022-09-06T05:22:44.232Z,67.77
2022-09-06T05:23:44.262Z,67.89
2022-09-06T05:24:44.231Z,67.99
2022-09-06T05:25:44.185Z,68.34
2022-09-06T05:26:44.178Z,68.45
2022-09-06T05:27:44.158Z,67.84
2022-09-06T05:28:44.506Z,67.92
2022-09-06T05:29:44.144Z,67.89
2022-09-06T05:30:44.147Z,67.73
2022-09-06T05:31:44.187Z,67.40
2022-09-06T05:32:44.111Z,67.47
2022-09-06T05:33:44.100Z,67.63
2022-09-06T05:34:44.065Z,67.61
2022-09-06T05:35:44.071Z,67.28
2022-09-06T05:36:44.099Z,67.29
2022-09-06T05:37:44.053Z,67.51
2022-09-06T05:38:44.040Z,67.46
2022-09-06T05:39:44.099Z,67.77
2022-09-06T05:40:44.024Z,68.06
2022-09-06T05:41:44.022Z,68.09
2022-09-06T05:42:43.968Z,68.04
2022-09-06T05:43:43.966Z,68.15
2022-09-06T05:44:43.950Z,67.57
2022-09-06T05:45:43.975Z,67.77
2022-09-06T05:46:43.916Z,68.49
2022-09-06T05:47:43.934Z,69.09
2022-09-06T05:48:43.906Z,68.46
2022-09-06T05:49:43.899Z,68.60
2022-09-06T05:50:43.891Z,68.25
2022-09-06T05:51:43.853Z,68.21
2022-09-06T05:52:43.846Z,68.17
2022-09-06T05:53:43.856Z,68.12
2022-09-06T05:54:43.823Z,68.33
2022-09-06T05:55:43.884Z,68.48
2022-09-06T05:56:43.794Z,68.70
2022-09-06T05:57:43.784Z,69.14
2022-09-06T05:58:43.769Z,69.26
2022-09-06T05:59:43.755Z,69.02
2022-09-06T06:00:43.749Z,69.08
2022-09-06T06:01:43.805Z,68.86
2022-09-06T06:02:43.771Z,69.03
2022-09-06T06:03:43.692Z,69.27
2022-09-06T06:04:43.697Z,69.52
2022-09-06T06:05:43.674Z,69.46
2022-09-06T06:06:43.670Z,69.39
2022-09-06T06:07:43.655Z,69.24
2022-09-06T06:08:44.410Z,69.41
2022-09-06T06:09:43.636Z,69.64
2022-09-06T06:10:43.614Z,69.59
2022-09-06T06:11:43.597Z,69.78
2022-09-06T06:12:43.583Z,69.69
2022-09-06T06:13:43.565Z,69.81
2022-09-06T06:14:43.584Z,70.01
2022-09-06T06:15:43.548Z,70.31
2022-09-06T06:16:43.611Z,70.25
2022-09-06T06:17:43.512Z,70.37
2022-09-06T06:18:43.524Z,70.39
2022-09-06T06:19:43.528Z,70.18
2022-09-06T06:20:43.481Z,70.26
2022-09-06T06:21:43.495Z,70.30
2022-09-06T06:22:43.499Z,70.19
2022-09-06T06:23:43.467Z,70.07
2022-09-06T06:24:44.282Z,70.01
2022-09-06T06:25:43.423Z,70.03
2022-09-06T06:26:43.417Z,69.94
2022-09-06T06:27:43.424Z,70.02
2022-09-06T06:28:43.392Z,69.95
2022-09-06T06:29:43.365Z,69.92
2022-09-06T06:30:43.418Z,69.89
2022-09-06T06:31:43.391Z,69.82
2022-09-06T06:32:43.329Z,69.92
2022-09-06T06:33:43.323Z,69.89
2022-09-06T06:34:43.313Z,69.50
2022-09-06T06:35:43.307Z,69.40
2022-09-06T06:36:43.281Z,69.15
2022-09-06T06:37:43.321Z,69.13
2022-09-06T06:38:43.247Z,69.20
2022-09-06T06:39:43.318Z,69.25
2022-09-06T06:40:43.225Z,69.01
2022-09-06T06:41:43.213Z,68.94
2022-09-06T06:42:43.254Z,68.85
2022-09-06T06:43:43.200Z,68.89
2022-09-06T06:44:43.180Z,68.92
2022-09-06T06:45:43.254Z,68.97
2022-09-06T06:46:43.167Z,68.54
2022-09-06T06:47:43.130Z,68.61
2022-09-06T06:48:43.121Z,68.75
2022-09-06T06:49:43.120Z,68.63
2022-09-06T06:50:43.096Z,68.75
2022-09-06T06:51:43.078Z,68.83
2022-09-06T06:52:43.074Z,68.83
2022-09-06T06:53:43.096Z,68.68
2022-09-06T06:54:43.082Z,68.67
2022-09-06T06:55:43.032Z,68.79
2022-09-06T06:56:43.036Z,68.91
2022-09-06T06:57:43.004Z,68.87
2022-09-06T06:58:43.048Z,68.64
2022-09-06T06:59:42.993Z,68.41
2022-09-06T07:00:43.143Z,68.35
2022-09-06T07:01:43.072Z,67.80
2022-09-06T07:02:42.976Z,68.14
2022-09-06T07:03:42.929Z,67.97
2022-09-06T07:04:42.930Z,67.69
2022-09-06T07:07:42.875Z,67.26
2022-09-06T07:08:42.866Z,67.06
2022-09-06T07:10:42.840Z,66.50
2022-09-06T07:11:42.854Z,66.50
2022-09-06T07:12:42.840Z,65.96
2022-09-06T07:13:42.787Z,65.54
2022-09-06T07:14:42.801Z,65.22
2022-09-06T07:15:42.798Z,65.37
2022-09-06T07:16:42.858Z,65.00
2022-09-06T07:17:42.774Z,64.58
2022-09-06T07:18:43.692Z,64.69
2022-09-06T07:21:42.771Z,64.34
2022-09-06T07:22:42.690Z,64.41
2022-09-06T07:24:43.297Z,63.76
2022-09-06T07:25:42.935Z,64.21
2022-09-06T07:26:42.644Z,64.23
2022-09-06T07:28:42.602Z,64.21
2022-09-06T07:29:42.633Z,64.39
2022-09-06T07:30:42.617Z,64.14
2022-09-06T07:32:42.571Z,64.04
2022-09-06T07:33:42.571Z,64.23
2022-09-06T07:34:42.509Z,63.94
2022-09-06T07:35:42.493Z,64.30
2022-09-06T07:36:42.490Z,64.24
2022-09-06T07:37:42.623Z,64.55
2022-09-06T07:38:42.560Z,64.47
2022-09-06T07:39:42.464Z,64.28
2022-09-06T07:40:42.440Z,64.38
2022-09-06T07:41:42.411Z,64.84
2022-09-06T07:42:42.418Z,64.93
2022-09-06T07:43:42.497Z,65.22
2022-09-06T07:44:42.392Z,65.10
2022-09-06T07:45:42.359Z,65.16
2022-09-06T07:46:42.669Z,65.21
2022-09-06T07:47:58.873Z,65.29
2022-09-06T07:48:42.341Z,65.42
2022-09-06T07:50:49.724Z,65.78
2022-09-06T07:51:42.289Z,66.00
2022-09-06T07:53:42.266Z,66.63
2022-09-06T07:54:42.280Z,66.63
2022-09-06T07:55:42.263Z,66.93
2022-09-06T07:56:42.297Z,67.31
2022-09-06T07:57:42.204Z,67.46
2022-09-06T07:58:42.207Z,67.47
2022-09-06T07:59:43.019Z,67.79
2022-09-06T08:00:42.232Z,67.96
2022-09-06T08:01:42.291Z,68.13
2022-09-06T08:02:42.143Z,68.44
2022-09-06T08:03:42.133Z,68.61
2022-09-06T08:04:42.120Z,69.14
2022-09-06T08:07:42.084Z,68.64
2022-09-06T08:08:58.200Z,68.92
2022-09-06T08:09:42.894Z,68.78
2022-09-06T08:10:42.078Z,68.84
2022-09-06T08:11:42.026Z,69.07
2022-09-06T08:12:42.025Z,69.12
2022-09-06T08:13:42.026Z,68.78
2022-09-06T08:14:41.997Z,69.08
2022-09-06T08:15:41.984Z,68.95
2022-09-06T08:16:42.015Z,69.15
2022-09-06T08:17:41.943Z,69.34
2022-09-06T08:18:42.020Z,69.24
2022-09-06T08:19:41.923Z,68.90
2022-09-06T08:20:41.912Z,68.78
2022-09-06T08:21:41.891Z,68.98
2022-09-06T08:22:41.873Z,68.82
2022-09-06T08:23:41.864Z,67.79
2022-09-06T08:24:41.855Z,67.60
2022-09-06T08:25:41.865Z,67.77
2022-09-06T08:26:41.871Z,67.36
2022-09-06T08:27:41.818Z,66.83
2022-09-06T08:28:41.803Z,66.63
2022-09-06T08:29:41.796Z,66.00
2022-09-06T08:30:41.775Z,64.53
2022-09-06T08:31:41.812Z,64.37
2022-09-06T08:32:41.739Z,63.71
2022-09-06T08:33:41.731Z,63.71
2022-09-06T08:34:41.740Z,63.38
2022-09-06T08:35:41.709Z,63.33
2022-09-06T08:36:41.692Z,62.62
2022-09-06T08:37:41.674Z,62.83
2022-09-06T08:38:41.656Z,62.57
2022-09-06T08:39:41.746Z,62.54
2022-09-06T08:40:41.677Z,62.54
2022-09-06T08:41:41.617Z,62.49
2022-09-06T08:42:41.606Z,62.33
2022-09-06T08:43:41.610Z,62.45
2022-09-06T08:44:57.625Z,62.71
2022-09-06T08:45:41.629Z,61.64
2022-09-06T08:46:41.601Z,61.82
2022-09-06T08:47:41.586Z,62.22
2022-09-06T08:48:41.540Z,62.45
2022-09-06T08:49:41.518Z,62.29
2022-09-06T08:50:41.528Z,62.46
2022-09-06T08:51:41.486Z,62.56
2022-09-06T08:52:49.337Z,62.23
2022-09-06T08:53:41.519Z,62.32
2022-09-06T08:54:41.507Z,62.31
2022-09-06T08:55:41.486Z,62.23
2022-09-06T08:56:41.420Z,62.40
2022-09-06T08:57:41.405Z,62.69
2022-09-06T08:58:41.403Z,62.90
2022-09-06T08:59:41.379Z,62.60
2022-09-06T09:00:41.414Z,62.86
2022-09-06T09:01:41.422Z,62.81
2022-09-06T09:02:41.338Z,63.12
2022-09-06T09:03:41.481Z,63.34
2022-09-06T09:04:41.312Z,63.40
2022-09-06T09:05:41.314Z,63.59
2022-09-06T09:06:41.303Z,63.43
2022-09-06T09:07:41.273Z,63.57
2022-09-06T09:08:41.264Z,63.60
2022-09-06T09:09:41.261Z,63.56
2022-09-06T09:10:41.258Z,63.61
2022-09-06T09:11:41.233Z,63.63
2022-09-06T09:12:41.203Z,63.20
2022-09-06T09:13:41.731Z,63.47
2022-09-06T09:14:41.191Z,63.29
2022-09-06T09:15:41.164Z,63.52
2022-09-06T09:16:41.273Z,63.44
2022-09-06T09:17:41.143Z,63.04
2022-09-06T09:18:41.133Z,63.34
2022-09-06T09:19:41.121Z,63.26
2022-09-06T09:20:41.113Z,63.30
2022-09-06T09:21:47.086Z,63.48
2022-09-06T09:22:41.070Z,63.29
2022-09-06T09:23:41.055Z,63.16
2022-09-06T09:24:41.750Z,62.66
2022-09-06T09:25:41.027Z,62.53
2022-09-06T09:26:41.034Z,63.21
2022-09-06T09:27:41.004Z,62.32
2022-09-06T09:28:40.995Z,62.58
2022-09-06T09:29:41.116Z,61.88
2022-09-06T09:30:48.910Z,61.82
2022-09-06T09:31:41.036Z,61.55
2022-09-06T09:32:40.949Z,62.00
2022-09-06T09:33:40.921Z,61.54
2022-09-06T09:34:40.910Z,61.54
2022-09-06T09:35:40.891Z,60.26
2022-09-06T09:36:40.883Z,60.40
2022-09-06T09:37:49.324Z,59.34
2022-09-06T09:38:40.865Z,59.47
2022-09-06T09:39:40.870Z,60.22
2022-09-06T09:40:40.830Z,60.54
2022-09-06T09:41:40.815Z,60.62
2022-09-06T09:42:40.806Z,60.24
2022-09-06T09:43:40.787Z,59.09
2022-09-06T09:44:40.787Z,58.92
2022-09-06T09:45:40.772Z,59.11
2022-09-06T09:46:40.802Z,58.00
2022-09-06T09:47:40.738Z,58.08
2022-09-06T09:48:40.730Z,57.72
2022-09-06T09:49:40.711Z,58.43
2022-09-06T09:50:40.705Z,58.62
2022-09-06T09:51:40.704Z,58.92
2022-09-06T09:52:40.672Z,59.13
2022-09-06T09:53:40.656Z,59.37
2022-09-06T09:54:40.653Z,59.17
2022-09-06T09:55:40.636Z,58.66
2022-09-06T09:56:40.623Z,58.35
2022-09-06T09:57:40.619Z,57.44
2022-09-06T09:58:40.593Z,57.32
2022-09-06T09:59:40.584Z,55.97
2022-09-06T10:00:40.605Z,54.92
2022-09-06T10:01:40.563Z,54.42
2022-09-06T10:02:40.546Z,54.24
2022-09-06T10:05:40.509Z,52.60
2022-09-06T10:07:40.492Z,52.88
2022-09-06T10:08:40.468Z,52.78
2022-09-06T10:09:40.450Z,52.27
2022-09-06T10:10:40.454Z,52.74
2022-09-06T10:11:40.425Z,53.08
2022-09-06T10:12:40.412Z,53.03
2022-09-06T10:13:40.407Z,52.61
2022-09-06T10:14:40.380Z,52.62
2022-09-06T10:15:40.454Z,52.60
2022-09-06T10:16:40.356Z,52.60
2022-09-06T10:17:40.370Z,52.19
2022-09-06T10:18:40.344Z,52.57
2022-09-06T10:19:40.345Z,52.41
2022-09-06T10:20:40.314Z,52.91
2022-09-06T10:21:40.326Z,52.38
2022-09-06T10:22:40.278Z,52.34
2022-09-06T10:24:40.271Z,52.99
2022-09-06T10:25:40.243Z,53.47
2022-09-06T10:26:40.241Z,53.44
2022-09-06T10:27:55.550Z,53.61
2022-09-06T10:28:40.209Z,53.82
2022-09-06T10:29:40.192Z,53.89
2022-09-06T10:30:40.178Z,53.98
2022-09-06T10:31:40.202Z,54.11
2022-09-06T10:32:40.156Z,54.67
2022-09-06T10:33:40.136Z,54.86
2022-09-06T10:34:40.158Z,55.22
2022-09-06T10:35:40.113Z,55.32
2022-09-06T10:36:40.113Z,55.40
2022-09-06T10:37:40.160Z,55.77
2022-09-06T10:38:40.068Z,55.24
2022-09-06T10:39:40.109Z,55.46
2022-09-06T10:40:40.047Z,55.70
2022-09-06T10:41:40.031Z,55.48
2022-09-06T10:42:40.021Z,55.66
2022-09-06T10:43:40.004Z,55.82
2022-09-06T10:44:40.004Z,55.16
2022-09-06T10:45:39.985Z,54.19
2022-09-06T10:46:40.019Z,53.27
2022-09-06T10:47:39.951Z,52.59
2022-09-06T10:48:40.007Z,53.49
2022-09-06T10:49:39.924Z,53.58
2022-09-06T10:50:41.092Z,52.39
2022-09-06T10:51:39.896Z,52.00
2022-09-06T10:52:39.887Z,52.61
2022-09-06T10:53:39.873Z,52.03
2022-09-06T10:54:39.996Z,51.57
2022-09-06T10:55:39.867Z,51.87
2022-09-06T10:56:39.860Z,51.51
2022-09-06T10:59:39.798Z,52.11
2022-09-06T11:00:39.802Z,52.46
2022-09-06T11:01:39.905Z,52.13
2022-09-06T11:02:40.470Z,52.24
2022-09-06T11:03:58.282Z,52.26
2022-09-06T11:05:40.013Z,51.71
2022-09-06T11:06:39.703Z,51.90
2022-09-06T11:07:39.954Z,52.35
2022-09-06T11:08:47.370Z,52.18
2022-09-06T11:09:39.668Z,52.30
2022-09-06T11:10:39.661Z,52.70
2022-09-06T11:11:39.643Z,52.99
2022-09-06T11:12:39.639Z,52.83
2022-09-06T11:13:39.626Z,52.60
2022-09-06T11:14:39.603Z,52.45
2022-09-06T11:15:39.663Z,52.67
2022-09-06T11:16:39.572Z,52.55
2022-09-06T11:17:39.563Z,52.80
2022-09-06T11:18:39.557Z,52.87
2022-09-06T11:19:39.542Z,52.81
2022-09-06T11:20:39.516Z,52.88
2022-09-06T11:21:39.529Z,52.32
2022-09-06T11:22:39.499Z,52.57
2022-09-06T11:23:39.483Z,52.35
2022-09-06T11:24:39.491Z,52.11
2022-09-06T11:25:39.474Z,51.71
2022-09-06T11:26:39.442Z,52.17
2022-09-06T11:27:39.425Z,52.57
2022-09-06T11:28:39.410Z,52.18
2022-09-06T11:29:39.405Z,51.98
2022-09-06T11:30:39.419Z,51.91
2022-09-06T11:32:39.385Z,52.22
2022-09-06T11:33:39.355Z,52.19
2022-09-06T11:34:39.364Z,51.56
2022-09-06T11:35:39.325Z,51.83
2022-09-06T11:36:39.310Z,52.10
2022-09-06T11:37:39.307Z,51.84
2022-09-06T11:38:39.297Z,52.04
2022-09-06T11:40:39.261Z,51.64
2022-09-06T11:41:39.244Z,51.49
2022-09-06T11:42:39.223Z,51.11
2022-09-06T11:43:39.241Z,51.05
2022-09-06T11:44:39.245Z,52.27
2022-09-06T11:45:39.214Z,51.15
2022-09-06T11:46:39.239Z,51.25
2022-09-06T11:47:39.185Z,51.46
2022-09-06T11:48:39.160Z,50.59
2022-09-06T11:49:39.162Z,50.77
2022-09-06T11:50:39.128Z,51.04
2022-09-06T11:51:39.153Z,51.06
2022-09-06T11:52:39.095Z,50.84
2022-09-06T11:53:39.088Z,50.76
2022-09-06T11:54:39.089Z,51.18
2022-09-06T11:55:39.073Z,51.55
2022-09-06T11:56:39.047Z,51.62
2022-09-06T11:57:39.043Z,51.53
2022-09-06T11:58:39.043Z,51.17
2022-09-06T11:59:39.012Z,51.54
2022-09-06T12:00:39.041Z,51.30
2022-09-06T12:01:38.989Z,51.62
2022-09-06T12:02:39.213Z,51.73
2022-09-06T12:04:38.956Z,51.18
2022-09-06T12:05:38.963Z,51.35
2022-09-06T12:06:38.920Z,50.63
2022-09-06T12:07:39.003Z,50.69
2022-09-06T12:08:38.895Z,50.67
2022-09-06T12:09:38.893Z,50.76
2022-09-06T12:10:38.871Z,49.92
2022-09-06T12:11:38.862Z,50.34
2022-09-06T12:12:38.853Z,50.71
2022-09-06T12:13:38.841Z,50.71
2022-09-06T12:14:38.819Z,49.61
2022-09-06T12:15:38.846Z,50.37
2022-09-06T12:16:38.795Z,49.79
2022-09-06T12:17:38.794Z,49.51
2022-09-06T12:18:38.776Z,49.56
2022-09-06T12:19:42.157Z,49.42
2022-09-06T12:20:38.750Z,48.95
2022-09-06T12:21:38.744Z,49.76
2022-09-06T12:22:38.721Z,49.48
2022-09-06T12:23:38.716Z,48.79
2022-09-06T12:24:38.707Z,48.61
2022-09-06T12:25:38.749Z,48.81
2022-09-06T12:26:38.682Z,49.10
2022-09-06T12:27:38.659Z,49.85
2022-09-06T12:28:38.653Z,49.36
2022-09-06T12:29:38.646Z,49.23
2022-09-06T12:30:38.617Z,49.14
2022-09-06T12:31:38.659Z,48.87
2022-09-06T12:32:38.599Z,48.41
2022-09-06T12:33:38.584Z,49.15
2022-09-06T12:34:38.591Z,49.17
2022-09-06T12:36:38.542Z,48.90
2022-09-06T12:37:38.535Z,49.12
2022-09-06T12:38:38.513Z,49.50
2022-09-06T12:39:38.580Z,49.16
2022-09-06T12:40:38.574Z,48.82
2022-09-06T12:41:43.092Z,48.58
2022-09-06T12:42:38.468Z,48.15
2022-09-06T12:43:38.457Z,48.30
2022-09-06T12:44:38.458Z,47.79
2022-09-06T12:45:38.421Z,47.36
2022-09-06T12:46:38.495Z,47.61
2022-09-06T12:47:38.429Z,47.80
2022-09-06T12:48:38.388Z,47.39
2022-09-06T12:49:38.379Z,46.72
2022-09-06T12:50:38.354Z,47.09
2022-09-06T12:51:38.347Z,46.90
2022-09-06T12:52:39.055Z,47.46
2022-09-06T12:53:38.324Z,46.89
2022-09-06T12:54:38.299Z,47.16
2022-09-06T12:55:38.287Z,46.91
2022-09-06T12:56:38.318Z,46.98
2022-09-06T12:57:38.264Z,47.31
2022-09-06T12:58:38.270Z,46.41
2022-09-06T12:59:38.249Z,46.25
2022-09-06T13:00:38.257Z,46.19
2022-09-06T13:01:38.325Z,46.41
2022-09-06T13:02:38.332Z,46.74
2022-09-06T13:03:38.187Z,46.98
2022-09-06T13:04:38.201Z,46.55
2022-09-06T13:05:38.157Z,46.66
2022-09-06T13:06:38.144Z,46.91
2022-09-06T13:07:38.141Z,47.17
2022-09-06T13:08:38.126Z,47.03
2022-09-06T13:09:38.132Z,45.90
2022-09-06T13:10:38.098Z,45.63
2022-09-06T13:11:38.084Z,45.87
2022-09-06T13:12:38.068Z,45.06
2022-09-06T13:13:38.065Z,45.12
2022-09-06T13:14:38.062Z,45.36
2022-09-06T13:15:38.120Z,45.56